Terminal Aerodrome Forecast
Issued by NWS Mt. Holly, NJ

Home | Current Version | Previous Version | Text Only | Print | Product List | Glossary On
Versions: 1 2 3 4 5 6 7 8 9 10 11 12 13 14 15 16 17 18 19 20 21 22 23
077
FTUS41 KPHI 071825 AAA
TAFRDG
TAF AMD
KRDG 071825Z 0718/0818 29010KT P6SM SCT030
      TEMPO 0719/0722 BKN030
     FM072200 28003KT P6SM FEW025
     FM080700 26003KT P6SM OVC120
     FM081500 28009KT P6SM VCSH BKN070=

USA.gov is the U.S. government's official web portal to all federal, state and local government web resources and services.